createdAt,value
2019-03-22T00:00:46.558Z,42.00
2019-03-22T00:03:20.574Z,40.78
2019-03-22T00:05:54.656Z,45.10
2019-03-22T00:08:29.603Z,43.65
2019-03-22T00:11:03.289Z,45.73
2019-03-22T00:13:37.036Z,45.55
2019-03-22T00:16:11.128Z,42.60
2019-03-22T00:18:45.213Z,45.38
2019-03-22T00:21:18.838Z,42.98
2019-03-22T00:23:52.473Z,44.10
2019-03-22T00:26:44.262Z,44.00
2019-03-22T00:29:18.451Z,43.70
2019-03-22T00:31:52.193Z,45.35
2019-03-22T00:34:25.863Z,45.85
2019-03-22T00:36:59.732Z,44.10
2019-03-22T00:39:33.666Z,43.87
2019-03-22T00:42:06.980Z,45.60
2019-03-22T00:44:40.669Z,45.17
2019-03-22T00:47:15.134Z,45.40
2019-03-22T00:49:49.671Z,44.15
2019-03-22T00:52:24.022Z,45.80
2019-03-22T00:54:57.810Z,45.25
2019-03-22T00:57:31.914Z,43.98
2019-03-22T01:00:07.522Z,47.98
2019-03-22T01:02:40.975Z,46.95
2019-03-22T01:05:15.890Z,47.85
2019-03-22T01:07:49.557Z,46.65
2019-03-22T01:10:23.368Z,45.45
2019-03-22T01:12:56.738Z,45.95
2019-03-22T01:15:33.739Z,46.50
2019-03-22T01:18:07.047Z,46.83
2019-03-22T01:20:40.758Z,50.38
2019-03-22T01:23:14.480Z,48.80
2019-03-22T01:25:48.744Z,49.05
2019-03-22T01:28:22.499Z,50.10
2019-03-22T01:30:56.719Z,49.05
2019-03-22T01:33:30.371Z,48.87
2019-03-22T01:36:04.106Z,48.80
2019-03-22T01:38:37.939Z,49.13
2019-03-22T01:41:11.550Z,49.05
2019-03-22T01:43:45.646Z,51.20
2019-03-22T01:46:19.865Z,50.65
2019-03-22T01:48:53.774Z,53.75
2019-03-22T01:51:27.744Z,46.05
2019-03-22T01:54:03.134Z,53.15
2019-03-22T01:56:37.244Z,51.60
2019-03-22T01:59:10.724Z,51.58
2019-03-22T02:01:44.420Z,50.52
2019-03-22T02:04:17.844Z,49.03
2019-03-22T02:06:51.732Z,50.50
2019-03-22T02:09:26.229Z,48.85
2019-03-22T02:12:00.166Z,51.98
2019-03-22T02:14:33.698Z,52.25
2019-03-22T02:17:07.805Z,52.83
2019-03-22T02:19:41.510Z,52.85
2019-03-22T02:22:15.120Z,51.18
2019-03-22T02:24:48.738Z,52.88
2019-03-22T02:27:30.730Z,53.10
2019-03-22T02:30:07.732Z,48.55
2019-03-22T02:32:42.836Z,53.08
2019-03-22T02:35:28.426Z,52.88
2019-03-22T02:37:53.024Z,53.30
2019-03-22T02:40:26.786Z,50.05
2019-03-22T02:43:00.880Z,49.53
2019-03-22T02:45:34.561Z,53.13
2019-03-22T02:48:08.549Z,53.73
2019-03-22T02:50:41.843Z,55.88
2019-03-22T02:53:15.821Z,56.02
2019-03-22T02:55:49.801Z,57.35
2019-03-22T02:58:23.724Z,58.60
2019-03-22T03:01:00.434Z,59.30
2019-03-22T03:03:34.245Z,64.60
2019-03-22T03:06:12.606Z,59.45
2019-03-22T03:08:46.248Z,53.13
2019-03-22T03:11:22.148Z,56.10
2019-03-22T03:13:56.077Z,56.70
2019-03-22T03:16:30.063Z,58.20
2019-03-22T03:19:03.823Z,58.23
2019-03-22T03:21:42.087Z,55.73
2019-03-22T03:24:15.788Z,57.62
2019-03-22T03:26:49.471Z,60.35
2019-03-22T03:29:25.360Z,60.45
2019-03-22T03:32:02.235Z,57.25
2019-03-22T03:34:36.572Z,60.35
2019-03-22T03:37:15.205Z,59.75
2019-03-22T03:39:50.463Z,59.48
2019-03-22T03:42:24.284Z,59.27
2019-03-22T03:44:58.810Z,61.08
2019-03-22T03:47:33.063Z,58.87
2019-03-22T03:50:08.018Z,56.58
2019-03-22T03:52:41.737Z,56.02
2019-03-22T03:55:15.027Z,57.17
2019-03-22T03:57:49.076Z,56.00
2019-03-22T04:00:22.632Z,56.55
2019-03-22T04:02:56.602Z,60.23
2019-03-22T04:05:30.512Z,51.40
2019-03-22T04:08:06.807Z,53.02
2019-03-22T04:10:46.439Z,64.37
2019-03-22T04:13:24.889Z,60.43
2019-03-22T04:15:58.272Z,61.30
2019-03-22T04:18:33.864Z,62.00
2019-03-22T04:21:07.269Z,60.88
2019-03-22T04:23:41.188Z,60.60
2019-03-22T04:26:14.703Z,63.40
2019-03-22T04:28:48.572Z,62.85
2019-03-22T04:31:21.861Z,57.23
2019-03-22T04:33:57.469Z,63.25
2019-03-22T04:36:30.818Z,58.23
2019-03-22T04:39:06.650Z,64.27
2019-03-22T04:41:40.708Z,63.23
2019-03-22T04:44:14.363Z,66.60
2019-03-22T04:46:48.500Z,68.52
2019-03-22T04:49:23.199Z,66.57
2019-03-22T04:51:58.361Z,63.10
2019-03-22T04:54:33.369Z,58.23
2019-03-22T04:57:09.449Z,35.28
2019-03-22T04:59:45.692Z,62.78
2019-03-22T05:02:22.419Z,60.43
2019-03-22T05:04:55.908Z,66.15
2019-03-22T05:07:32.944Z,69.50
2019-03-22T05:10:11.606Z,64.65
2019-03-22T05:12:50.802Z,65.05
2019-03-22T05:15:26.124Z,63.00
2019-03-22T05:18:00.142Z,64.07
2019-03-22T05:20:37.079Z,66.65
2019-03-22T05:23:10.991Z,65.30
2019-03-22T05:25:45.670Z,62.67
2019-03-22T05:28:19.330Z,65.80
2019-03-22T05:31:01.555Z,63.60
2019-03-22T05:33:35.308Z,64.37
2019-03-22T05:36:13.311Z,61.90
2019-03-22T05:38:47.670Z,65.60
2019-03-22T05:41:22.509Z,65.05
2019-03-22T05:43:56.462Z,64.80
2019-03-22T05:46:31.423Z,62.10
2019-03-22T05:49:06.443Z,64.85
2019-03-22T05:51:40.651Z,61.05
2019-03-22T05:54:15.242Z,62.88
2019-03-22T05:56:49.594Z,66.42
2019-03-22T05:59:22.857Z,48.85
2019-03-22T06:01:57.488Z,66.05
2019-03-22T06:04:31.140Z,62.90
2019-03-22T06:07:09.893Z,64.40
2019-03-22T06:09:43.513Z,60.08
2019-03-22T06:12:18.360Z,60.20
2019-03-22T06:14:51.735Z,60.23
2019-03-22T06:17:26.909Z,61.65
2019-03-22T06:20:00.780Z,59.35
2019-03-22T06:22:35.055Z,58.13
2019-03-22T06:25:08.868Z,60.67
2019-03-22T06:27:43.061Z,57.62
2019-03-22T06:30:16.703Z,57.35
2019-03-22T06:32:50.737Z,59.65
2019-03-22T06:35:31.131Z,55.98
2019-03-22T06:38:06.115Z,57.53
2019-03-22T06:40:39.634Z,55.60
2019-03-22T06:43:14.266Z,55.50
2019-03-22T06:45:47.730Z,55.08
2019-03-22T06:48:21.672Z,54.73
2019-03-22T06:50:55.863Z,52.03
2019-03-22T06:53:29.830Z,52.90
2019-03-22T06:56:03.450Z,50.48
2019-03-22T06:58:37.181Z,50.65
2019-03-22T07:01:11.016Z,50.10
2019-03-22T07:03:44.680Z,51.37
2019-03-22T07:06:18.311Z,50.28
2019-03-22T07:08:51.991Z,50.00
2019-03-22T07:11:25.387Z,50.08
2019-03-22T07:13:59.201Z,47.08
2019-03-22T07:16:33.038Z,48.00
2019-03-22T07:19:09.811Z,46.90
2019-03-22T07:21:43.870Z,47.23
2019-03-22T07:24:17.514Z,45.28
2019-03-22T07:26:50.917Z,44.23
2019-03-22T07:29:25.117Z,42.27
2019-03-22T07:31:58.678Z,46.28
2019-03-22T07:34:33.604Z,45.10
2019-03-22T07:37:07.317Z,44.27
2019-03-22T07:39:41.267Z,45.75
2019-03-22T07:42:17.489Z,44.55
2019-03-22T07:44:50.068Z,35.98
2019-03-22T07:47:23.552Z,44.18
2019-03-22T07:49:57.616Z,43.85
2019-03-22T07:52:31.142Z,42.65
2019-03-22T07:55:05.123Z,39.00
2019-03-22T07:57:38.995Z,41.45
2019-03-22T08:00:13.947Z,43.52
2019-03-22T08:02:47.159Z,42.98
2019-03-22T08:05:20.848Z,39.63
2019-03-22T08:07:56.110Z,41.18
2019-03-22T08:10:32.823Z,42.03
2019-03-22T08:13:06.262Z,42.93
2019-03-22T08:15:41.777Z,39.33
2019-03-22T08:18:15.548Z,39.95
2019-03-22T08:20:49.844Z,39.27
2019-03-22T08:23:26.557Z,40.52
2019-03-22T08:26:03.622Z,41.28
2019-03-22T08:28:37.632Z,41.50
2019-03-22T08:31:11.895Z,39.08
2019-03-22T08:33:45.900Z,38.20
2019-03-22T08:36:19.726Z,38.40
2019-03-22T08:38:53.229Z,37.95
2019-03-22T08:41:26.965Z,36.75
2019-03-22T08:44:02.722Z,35.92
2019-03-22T08:46:35.600Z,37.45
2019-03-22T08:49:09.700Z,39.40
2019-03-22T08:51:43.719Z,39.98
2019-03-22T08:54:17.583Z,37.88
2019-03-22T08:56:51.251Z,36.98
2019-03-22T08:59:25.049Z,37.85
2019-03-22T09:01:58.753Z,38.75
2019-03-22T09:04:32.132Z,38.53
2019-03-22T09:07:05.648Z,38.95
2019-03-22T09:09:41.718Z,41.55
2019-03-22T09:12:14.975Z,33.28
2019-03-22T09:14:48.358Z,40.30
2019-03-22T09:17:22.369Z,38.02
2019-03-22T09:19:56.387Z,38.53
2019-03-22T09:22:30.741Z,39.75
2019-03-22T09:25:05.729Z,39.42
2019-03-22T09:27:40.345Z,41.20
2019-03-22T09:30:15.973Z,39.20
2019-03-22T09:32:49.930Z,38.38
2019-03-22T09:35:23.876Z,39.98
2019-03-22T09:37:57.895Z,40.55
2019-03-22T09:40:31.847Z,39.85
2019-03-22T09:43:05.777Z,39.98
2019-03-22T09:45:39.394Z,40.70
2019-03-22T09:48:13.071Z,39.53
2019-03-22T09:50:46.486Z,42.58
2019-03-22T09:53:20.174Z,41.00
2019-03-22T09:55:54.636Z,39.85
2019-03-22T09:58:28.515Z,42.20
2019-03-22T10:01:02.661Z,41.28
2019-03-22T10:03:36.323Z,43.10
2019-03-22T10:06:10.527Z,42.05
2019-03-22T10:08:44.588Z,43.68
2019-03-22T10:11:17.943Z,42.40
2019-03-22T10:13:52.882Z,41.45
2019-03-22T10:16:26.719Z,43.50
2019-03-22T10:19:00.650Z,44.05
2019-03-22T10:21:34.494Z,43.15
2019-03-22T10:24:08.350Z,41.75
2019-03-22T10:26:41.579Z,42.17
2019-03-22T10:29:15.590Z,45.10
2019-03-22T10:31:49.048Z,45.43
2019-03-22T10:34:22.789Z,45.95
2019-03-22T10:36:57.079Z,48.35
2019-03-22T10:39:32.178Z,46.85
2019-03-22T10:42:06.311Z,49.88
2019-03-22T10:44:40.165Z,49.00
2019-03-22T10:47:14.038Z,47.88
2019-03-22T10:49:48.242Z,48.33
2019-03-22T10:52:24.189Z,46.88
2019-03-22T10:54:57.833Z,49.93
2019-03-22T10:57:31.800Z,51.80
2019-03-22T11:00:07.254Z,51.18
2019-03-22T11:02:41.169Z,52.03
2019-03-22T11:05:15.300Z,53.35
2019-03-22T11:07:49.158Z,54.25
2019-03-22T11:10:23.097Z,55.92
2019-03-22T11:12:57.328Z,52.27
2019-03-22T11:15:33.387Z,55.92
2019-03-22T11:18:07.235Z,58.10
2019-03-22T11:20:42.641Z,57.48
2019-03-22T11:23:16.645Z,54.70
2019-03-22T11:26:00.293Z,55.50
2019-03-22T11:28:31.396Z,56.53
2019-03-22T11:31:06.039Z,54.05
2019-03-22T11:33:46.078Z,57.33
2019-03-22T11:36:20.373Z,57.45
2019-03-22T11:38:55.402Z,58.08
2019-03-22T11:41:29.933Z,59.15
2019-03-22T11:44:03.858Z,59.50
2019-03-22T11:46:41.767Z,55.65
2019-03-22T11:49:15.131Z,59.27
2019-03-22T11:51:49.244Z,55.00
2019-03-22T11:54:37.627Z,59.08
2019-03-22T11:57:13.948Z,60.45
2019-03-22T11:59:48.019Z,61.35
2019-03-22T12:02:22.613Z,61.35
2019-03-22T12:04:57.698Z,63.15
2019-03-22T12:07:32.017Z,62.78
2019-03-22T12:10:08.872Z,61.13
2019-03-22T12:12:43.097Z,65.78
2019-03-22T12:15:25.405Z,67.37
2019-03-22T12:17:59.966Z,70.65
2019-03-22T12:20:33.945Z,72.62
2019-03-22T12:23:08.328Z,69.85
2019-03-22T12:25:42.195Z,67.67
2019-03-22T12:28:23.669Z,70.37
2019-03-22T12:30:57.527Z,62.10
2019-03-22T12:33:31.219Z,64.15
2019-03-22T12:36:05.129Z,61.20
2019-03-22T12:38:38.535Z,53.65
2019-03-22T12:41:12.604Z,51.10
2019-03-22T12:43:46.928Z,48.73
2019-03-22T12:46:20.640Z,50.80
2019-03-22T12:48:54.580Z,48.42
2019-03-22T12:51:28.381Z,48.42
2019-03-22T12:54:02.531Z,47.13
2019-03-22T12:56:36.878Z,45.23
2019-03-22T12:59:10.696Z,44.63
2019-03-22T13:01:44.780Z,45.15
2019-03-22T13:04:22.467Z,43.02
2019-03-22T13:06:56.439Z,43.58
2019-03-22T13:09:30.478Z,43.10
2019-03-22T13:12:06.382Z,41.30
2019-03-22T13:14:40.522Z,41.60
2019-03-22T13:17:14.050Z,39.25
2019-03-22T13:19:47.976Z,40.50
2019-03-22T13:22:21.842Z,38.63
2019-03-22T13:24:55.809Z,38.55
2019-03-22T13:27:31.663Z,40.12
2019-03-22T13:30:07.800Z,41.83
2019-03-22T13:32:41.651Z,36.35
2019-03-22T13:35:15.973Z,39.23
2019-03-22T13:37:50.696Z,39.95
2019-03-22T13:40:24.412Z,37.28
2019-03-22T13:42:58.286Z,37.45
2019-03-22T13:45:32.239Z,34.50
2019-03-22T13:48:05.828Z,37.35
2019-03-22T13:50:41.991Z,36.75
2019-03-22T13:53:15.978Z,38.15
2019-03-22T13:55:50.534Z,35.80
2019-03-22T13:58:24.437Z,35.83
2019-03-22T14:00:58.655Z,37.90
2019-03-22T14:03:33.174Z,33.95
2019-03-22T14:06:07.603Z,34.67
2019-03-22T14:08:41.844Z,35.33
2019-03-22T14:11:16.048Z,32.73
2019-03-22T14:13:49.696Z,33.90
2019-03-22T14:16:23.597Z,32.38
2019-03-22T14:19:00.067Z,32.20
2019-03-22T14:21:34.009Z,31.73
2019-03-22T14:24:07.633Z,31.50
2019-03-22T14:26:41.670Z,34.13
2019-03-22T14:29:16.157Z,26.27
2019-03-22T14:31:50.016Z,34.45
2019-03-22T14:34:23.650Z,31.90
2019-03-22T14:36:59.043Z,31.27
2019-03-22T14:39:32.968Z,31.02
2019-03-22T14:42:06.935Z,31.60
2019-03-22T14:44:41.051Z,34.08
2019-03-22T14:47:14.590Z,30.45
2019-03-22T14:49:48.630Z,29.77
2019-03-22T14:52:22.388Z,32.78
2019-03-22T14:54:56.691Z,34.67
2019-03-22T14:57:30.910Z,32.25
2019-03-22T15:00:04.633Z,31.95
2019-03-22T15:02:40.471Z,32.08
2019-03-22T15:05:14.133Z,33.67
2019-03-22T15:07:51.223Z,29.63
2019-03-22T15:10:25.108Z,31.87
2019-03-22T15:12:58.935Z,29.45
2019-03-22T15:15:43.443Z,28.50
2019-03-22T15:18:28.631Z,33.58
2019-03-22T15:21:22.518Z,32.83
2019-03-22T15:24:03.403Z,32.70
2019-03-22T15:26:45.266Z,31.85
2019-03-22T15:29:26.640Z,32.95
2019-03-22T15:32:23.613Z,32.63
2019-03-22T15:35:15.393Z,31.00
2019-03-22T15:37:59.889Z,28.38
2019-03-22T15:40:38.536Z,29.15
2019-03-22T15:43:18.278Z,30.08
2019-03-22T15:45:53.739Z,29.57
2019-03-22T15:48:39.585Z,28.30
2019-03-22T15:51:27.022Z,28.65
2019-03-22T15:54:01.068Z,27.27
2019-03-22T15:56:36.729Z,28.57
2019-03-22T15:59:10.405Z,29.72
2019-03-22T16:01:45.535Z,29.42
2019-03-22T16:04:18.885Z,30.92
2019-03-22T16:06:53.955Z,29.12
2019-03-22T16:09:27.768Z,28.52
2019-03-22T16:12:02.375Z,29.77
2019-03-22T16:14:35.680Z,31.20
2019-03-22T16:17:13.491Z,30.60
2019-03-22T16:19:47.265Z,29.75
2019-03-22T16:22:21.909Z,34.67
2019-03-22T16:25:07.889Z,33.08
2019-03-22T16:27:41.655Z,31.77
2019-03-22T16:30:16.848Z,31.68
2019-03-22T16:32:50.955Z,31.60
2019-03-22T16:35:24.944Z,32.13
2019-03-22T16:37:59.618Z,31.23
2019-03-22T16:40:33.257Z,31.27
2019-03-22T16:43:43.212Z,30.52
2019-03-22T16:46:23.360Z,32.13
2019-03-22T16:48:57.529Z,30.60
2019-03-22T16:51:32.348Z,33.10
2019-03-22T16:54:07.604Z,33.48
2019-03-22T16:56:53.310Z,32.88
2019-03-22T16:59:28.733Z,30.95
2019-03-22T17:02:10.274Z,31.55
2019-03-22T17:04:50.397Z,29.95
2019-03-22T17:14:15.998Z,31.07
2019-03-22T17:17:04.205Z,30.32
2019-03-22T17:19:37.619Z,30.82
2019-03-22T17:22:11.462Z,29.85
2019-03-22T17:24:50.305Z,30.77
2019-03-22T17:27:27.810Z,29.72
2019-03-22T17:30:28.066Z,33.10
2019-03-22T17:33:08.303Z,29.87
2019-03-22T17:35:42.543Z,36.45
2019-03-22T17:38:20.250Z,31.82
2019-03-22T17:40:54.294Z,30.70
2019-03-22T17:43:28.412Z,31.50
2019-03-22T17:46:02.660Z,30.35
2019-03-22T17:48:43.152Z,30.95
2019-03-22T17:51:18.492Z,30.75
2019-03-22T17:53:55.396Z,30.80
2019-03-22T17:56:37.265Z,30.57
2019-03-22T18:01:44.095Z,29.92
2019-03-22T18:04:24.349Z,30.57
2019-03-22T18:06:58.960Z,30.52
2019-03-22T18:09:34.370Z,29.98
2019-03-22T18:12:11.860Z,30.70
2019-03-22T18:14:49.035Z,29.92
2019-03-22T18:17:23.396Z,30.32
2019-03-22T18:19:58.276Z,31.57
2019-03-22T18:22:32.318Z,31.77
2019-03-22T18:25:07.675Z,32.85
2019-03-22T18:27:41.888Z,31.65
2019-03-22T18:30:16.268Z,31.20
2019-03-22T18:32:50.831Z,32.13
2019-03-22T18:35:27.407Z,32.15
2019-03-22T18:38:02.431Z,32.10
2019-03-22T18:40:36.312Z,30.57
2019-03-22T18:43:14.472Z,32.70
2019-03-22T18:45:48.433Z,33.25
2019-03-22T18:48:23.300Z,33.50
2019-03-22T18:50:58.043Z,32.13
2019-03-22T18:53:33.237Z,33.20
2019-03-22T18:56:07.309Z,34.40
2019-03-22T18:58:47.257Z,31.95
2019-03-22T19:01:21.128Z,33.60
2019-03-22T19:03:58.962Z,32.90
2019-03-22T19:06:34.025Z,35.15
2019-03-22T19:09:11.578Z,34.15
2019-03-22T19:11:46.441Z,35.78
2019-03-22T19:14:20.129Z,35.58
2019-03-22T19:16:54.164Z,33.67
2019-03-22T19:19:29.340Z,37.65
2019-03-22T19:22:03.629Z,36.70
2019-03-22T19:24:37.418Z,35.55
2019-03-22T19:27:12.231Z,35.73
2019-03-22T19:29:46.911Z,35.10
2019-03-22T19:32:21.319Z,35.75
2019-03-22T19:34:55.345Z,37.42
2019-03-22T19:37:29.429Z,35.75
2019-03-22T19:40:03.771Z,34.63
2019-03-22T19:42:37.476Z,38.02
2019-03-22T19:45:12.833Z,36.93
2019-03-22T19:47:50.266Z,35.15
2019-03-22T19:50:24.329Z,36.80
2019-03-22T19:52:58.012Z,35.23
2019-03-22T19:55:32.313Z,35.20
2019-03-22T19:58:07.455Z,34.70
2019-03-22T20:00:41.766Z,35.70
2019-03-22T20:03:15.893Z,35.33
2019-03-22T20:05:49.869Z,36.10
2019-03-22T20:08:26.815Z,34.45
2019-03-22T20:11:03.020Z,32.85
2019-03-22T20:13:36.823Z,33.02
2019-03-22T20:16:11.881Z,34.50
2019-03-22T20:18:46.501Z,34.75
2019-03-22T20:21:20.331Z,33.13
2019-03-22T20:23:54.088Z,30.17
2019-03-22T20:26:27.967Z,34.73
2019-03-22T20:29:02.024Z,36.25
2019-03-22T20:31:35.658Z,35.10
2019-03-22T20:34:10.332Z,33.88
2019-03-22T20:36:46.029Z,35.43
2019-03-22T20:39:21.031Z,35.98
2019-03-22T20:41:56.809Z,34.95
2019-03-22T20:44:34.192Z,35.63
2019-03-22T20:47:06.298Z,35.28
2019-03-22T20:49:40.595Z,34.53
2019-03-22T20:52:16.001Z,33.70
2019-03-22T20:54:50.508Z,33.63
2019-03-22T20:57:25.564Z,33.18
2019-03-22T20:59:59.253Z,36.50
2019-03-22T21:02:32.799Z,34.03
2019-03-22T21:05:08.069Z,35.80
2019-03-22T21:07:41.694Z,34.95
2019-03-22T21:10:15.721Z,34.27
2019-03-22T21:12:49.518Z,34.23
2019-03-22T21:15:24.600Z,34.65
2019-03-22T21:17:58.717Z,35.48
2019-03-22T21:20:32.705Z,34.50
2019-03-22T21:23:06.165Z,35.15
2019-03-22T21:25:41.162Z,37.13
2019-03-22T21:28:16.567Z,37.90
2019-03-22T21:30:50.436Z,33.80
2019-03-22T21:33:24.105Z,35.88
2019-03-22T21:35:58.131Z,34.90
2019-03-22T21:38:32.129Z,36.25
2019-03-22T21:41:06.176Z,35.45
2019-03-22T21:43:39.791Z,37.10
2019-03-22T21:46:13.606Z,37.00
2019-03-22T21:48:47.722Z,38.75
2019-03-22T21:51:21.433Z,38.17
2019-03-22T21:53:55.364Z,37.85
2019-03-22T21:56:29.957Z,36.17
2019-03-22T21:59:08.014Z,36.38
2019-03-22T22:01:41.727Z,36.45
2019-03-22T22:04:15.587Z,37.53
2019-03-22T22:06:49.640Z,34.85
2019-03-22T22:09:28.194Z,37.78
2019-03-22T22:12:02.310Z,35.30
2019-03-22T22:14:41.010Z,37.38
2019-03-22T22:17:13.398Z,35.80
2019-03-22T22:19:48.449Z,35.25
2019-03-22T22:22:23.772Z,38.38
2019-03-22T22:24:58.828Z,39.18
2019-03-22T22:27:32.935Z,37.67
2019-03-22T22:30:11.002Z,40.10
2019-03-22T22:32:45.234Z,40.48
2019-03-22T22:35:19.457Z,39.33
2019-03-22T22:37:53.188Z,43.25
2019-03-22T22:40:27.065Z,40.92
2019-03-22T22:43:01.136Z,41.58
2019-03-22T22:45:38.572Z,42.60
2019-03-22T22:48:13.608Z,46.30
2019-03-22T22:50:51.101Z,43.33
2019-03-22T22:53:25.856Z,44.48
2019-03-22T22:56:00.266Z,44.88
2019-03-22T22:58:35.262Z,45.88
2019-03-22T23:01:09.305Z,45.95
2019-03-22T23:03:43.832Z,47.35
2019-03-22T23:06:23.075Z,47.95
2019-03-22T23:08:56.956Z,47.00
2019-03-22T23:11:34.852Z,50.98
2019-03-22T23:14:09.210Z,48.08
2019-03-22T23:16:44.919Z,50.17
2019-03-22T23:19:19.567Z,52.23
2019-03-22T23:21:55.024Z,49.27
2019-03-22T23:24:29.652Z,49.35
2019-03-22T23:27:04.451Z,49.83
2019-03-22T23:29:42.070Z,48.87
2019-03-22T23:32:17.317Z,48.35
2019-03-22T23:34:58.940Z,50.67
2019-03-22T23:37:28.303Z,49.38
2019-03-22T23:40:02.072Z,48.90
2019-03-22T23:42:36.491Z,50.40
2019-03-22T23:45:12.108Z,50.80
2019-03-22T23:47:45.529Z,68.45
2019-03-22T23:50:23.927Z,117.75
2019-03-22T23:52:57.843Z,128.53
2019-03-22T23:55:31.878Z,140.05
2019-03-22T23:58:05.886Z,131.00
